Time;durP1;ratioP1;P1;durP2;ratioP2;P2;SDS_P1;SDS_P2;PMS_P1;PMS_P2;Temp;Humidity;BMP_temperature;BMP_pressure;BME280_temperature;BME280_humidity;BME280_pressure;Samples;Min_cycle;Max_cycle;Signal;HPM_P1;HPM_P2
2021/05/02 00:01:32;;;;;;;;;;;7.20;90.00;;;;;;4989361;28;19917;-54
2021/05/02 00:03:58;;;;;;;;;;;7.20;89.80;;;;;;4989568;28;19922;-51
2021/05/02 00:06:23;;;;;;;;;;;7.20;89.80;;;;;;4989441;28;20726;-49
2021/05/02 00:08:49;;;;;;;;;;;7.20;90.00;;;;;;4987677;28;19918;-49
2021/05/02 00:11:15;;;;;;;;;;;7.20;90.20;;;;;;4985516;28;19918;-48
2021/05/02 00:13:58;;;;;;;;;;;7.20;89.80;;;;;;4980124;28;19921;-48
2021/05/02 00:16:23;;;;;;;;;;;7.20;89.90;;;;;;4992128;28;20380;-48
2021/05/02 00:18:49;;;;;;;;;;;7.20;89.80;;;;;;4991499;28;19924;-50
2021/05/02 00:21:15;;;;;;;;;;;7.20;90.00;;;;;;4992216;28;19917;-49
2021/05/02 00:23:42;;;;;;;;;;;7.20;90.00;;;;;;4991864;28;19963;-48
2021/05/02 00:26:09;;;;;;;;;;;7.20;90.20;;;;;;4991916;28;19968;-53
2021/05/02 00:28:35;;;;;;;;;;;7.20;90.10;;;;;;4996869;28;19929;-50
2021/05/02 00:31:05;;;;;;;;;;;7.20;90.00;;;;;;5074217;28;19916;-48
2021/05/02 00:33:31;;;;;;;;;;;7.20;90.10;;;;;;5017150;28;19918;-48
2021/05/02 00:35:56;;;;;;;;;;;7.20;90.00;;;;;;4978444;28;20287;-51
2021/05/02 00:38:22;;;;;;;;;;;7.20;90.10;;;;;;4991333;28;19944;-49
2021/05/02 00:40:54;;;;;;;;;;;7.20;90.20;;;;;;4991658;28;20012;-51
2021/05/02 00:43:43;;;;;;;;;;;7.20;90.10;;;;;;4981077;28;19925;-52
2021/05/02 00:46:13;;;;;;;;;;;7.10;90.00;;;;;;4972561;28;19980;-53
2021/05/02 00:48:46;;;;;;;;;;;7.10;90.00;;;;;;4984153;28;19987;-53
2021/05/02 00:51:15;;;;;;;;;;;7.20;90.00;;;;;;4990932;28;20004;-51
2021/05/02 00:53:59;;;;;;;;;;;7.10;90.00;;;;;;4991754;28;20292;-52
2021/05/02 00:56:28;;;;;;;;;;;7.10;90.40;;;;;;4977209;28;19918;-53
2021/05/02 00:59:01;;;;;;;;;;;7.10;89.80;;;;;;4974592;28;19921;-51
2021/05/02 01:01:29;;;;;;;;;;;7.10;90.10;;;;;;4978289;28;19971;-52
2021/05/02 01:03:58;;;;;;;;;;;7.10;90.10;;;;;;4991709;28;19921;-53
2021/05/02 01:06:24;;;;;;;;;;;7.10;90.20;;;;;;4991310;28;20355;-51
2021/05/02 01:08:51;;;;;;;;;;;7.10;90.20;;;;;;5034820;28;19916;-53
2021/05/02 01:11:17;;;;;;;;;;;7.10;90.60;;;;;;4980543;28;19918;-49
2021/05/02 01:13:44;;;;;;;;;;;7.00;90.20;;;;;;4991141;28;20413;-53
2021/05/02 01:16:12;;;;;;;;;;;7.00;90.30;;;;;;4991646;28;19918;-48
2021/05/02 01:18:39;;;;;;;;;;;7.00;90.40;;;;;;4990488;28;20384;-52
2021/05/02 01:21:05;;;;;;;;;;;7.00;90.20;;;;;;4990324;28;19922;-48
2021/05/02 01:23:31;;;;;;;;;;;7.00;90.10;;;;;;4990285;28;19943;-49
2021/05/02 01:25:58;;;;;;;;;;;7.00;90.00;;;;;;4990760;28;19921;-49
2021/05/02 01:28:25;;;;;;;;;;;7.00;90.00;;;;;;4989160;28;19921;-50
2021/05/02 01:30:51;;;;;;;;;;;7.00;90.00;;;;;;4995005;28;19918;-49
2021/05/02 01:33:16;;;;;;;;;;;7.00;90.00;;;;;;4998437;28;19924;-52
2021/05/02 01:35:43;;;;;;;;;;;7.00;90.00;;;;;;4992447;28;19953;-50
2021/05/02 01:38:09;;;;;;;;;;;7.00;90.00;;;;;;4989449;28;20732;-48
2021/05/02 01:40:35;;;;;;;;;;;6.90;90.00;;;;;;4991769;28;19922;-48
2021/05/02 01:43:01;;;;;;;;;;;6.90;90.00;;;;;;4988847;28;19925;-49
2021/05/02 01:45:27;;;;;;;;;;;6.90;90.10;;;;;;4985611;28;20336;-49
2021/05/02 01:47:58;;;;;;;;;;;6.90;89.90;;;;;;4980889;28;19921;-52
2021/05/02 01:50:26;;;;;;;;;;;6.90;89.90;;;;;;4989771;28;20004;-51
2021/05/02 01:52:53;;;;;;;;;;;6.90;90.00;;;;;;4976979;28;19917;-52
2021/05/02 01:55:19;;;;;;;;;;;6.90;89.70;;;;;;4990002;28;19921;-53
2021/05/02 01:57:46;;;;;;;;;;;6.90;89.60;;;;;;4990007;28;19961;-54
2021/05/02 02:00:25;;;;;;;;;;;6.90;89.60;;;;;;5038051;28;19996;-50
2021/05/02 02:02:51;;;;;;;;;;;6.90;89.50;;;;;;4992158;28;19922;-54
2021/05/02 02:05:21;;;;;;;;;;;6.90;89.40;;;;;;4991707;28;19921;-51
2021/05/02 02:07:47;;;;;;;;;;;6.90;89.00;;;;;;4990103;28;20287;-52
2021/05/02 02:10:15;;;;;;;;;;;6.90;89.00;;;;;;4992614;28;19925;-52
2021/05/02 02:12:41;;;;;;;;;;;6.90;88.80;;;;;;4978888;28;19967;-53
2021/05/02 02:15:07;;;;;;;;;;;6.90;88.60;;;;;;5056727;28;19925;-53
2021/05/02 02:17:33;;;;;;;;;;;6.90;88.10;;;;;;5021804;28;19926;-52
2021/05/02 02:19:59;;;;;;;;;;;6.90;88.00;;;;;;4989500;28;19944;-51
2021/05/02 02:22:26;;;;;;;;;;;6.90;88.00;;;;;;4987485;28;19918;-53
2021/05/02 02:24:58;;;;;;;;;;;6.90;87.10;;;;;;4987288;28;19917;-54
2021/05/02 02:27:28;;;;;;;;;;;6.90;87.00;;;;;;4988538;28;19929;-54
2021/05/02 02:29:56;;;;;;;;;;;6.90;86.90;;;;;;4992237;28;20395;-52
2021/05/02 02:32:22;;;;;;;;;;;6.90;86.60;;;;;;5031390;28;19929;-53
2021/05/02 02:34:49;;;;;;;;;;;6.90;85.90;;;;;;4984989;28;19924;-50
2021/05/02 02:37:16;;;;;;;;;;;6.90;85.80;;;;;;4990739;28;19949;-52
2021/05/02 02:39:51;;;;;;;;;;;6.90;85.40;;;;;;4990242;28;20004;-53
2021/05/02 02:42:18;;;;;;;;;;;6.90;85.50;;;;;;4972460;28;19967;-54
2021/05/02 02:44:46;;;;;;;;;;;6.90;85.60;;;;;;4990247;28;20397;-53
2021/05/02 02:47:13;;;;;;;;;;;6.90;85.80;;;;;;4987974;28;19976;-53
2021/05/02 02:49:41;;;;;;;;;;;6.90;85.50;;;;;;4983966;28;19921;-53
2021/05/02 02:52:08;;;;;;;;;;;6.90;85.30;;;;;;5012808;28;19967;-54
2021/05/02 02:54:34;;;;;;;;;;;6.90;85.60;;;;;;4994436;28;20466;-53
2021/05/02 02:57:01;;;;;;;;;;;6.90;85.40;;;;;;4987231;28;19924;-50
2021/05/02 02:59:29;;;;;;;;;;;6.90;84.50;;;;;;4986508;28;19922;-54
2021/05/02 03:01:56;;;;;;;;;;;6.90;84.60;;;;;;4990129;28;19918;-53
2021/05/02 03:04:22;;;;;;;;;;;6.90;84.70;;;;;;4986820;28;20414;-50
2021/05/02 03:06:50;;;;;;;;;;;6.90;84.50;;;;;;4967936;28;19925;-51
2021/05/02 03:09:16;;;;;;;;;;;6.90;84.10;;;;;;4988986;28;19941;-52
2021/05/02 03:11:42;;;;;;;;;;;6.90;84.50;;;;;;4983172;28;20374;-53
2021/05/02 03:14:10;;;;;;;;;;;6.90;84.50;;;;;;4983477;28;19918;-50
2021/05/02 03:16:37;;;;;;;;;;;6.90;84.40;;;;;;4987898;28;19917;-52
2021/05/02 03:19:19;;;;;;;;;;;6.80;84.30;;;;;;4985081;28;20071;-51
2021/05/02 03:22:06;;;;;;;;;;;6.80;83.40;;;;;;4990847;28;20004;-52
2021/05/02 03:24:34;;;;;;;;;;;6.80;83.90;;;;;;4969685;28;20047;-53
2021/05/02 03:27:02;;;;;;;;;;;6.80;83.60;;;;;;4990289;28;19925;-50
2021/05/02 03:29:38;;;;;;;;;;;6.80;83.80;;;;;;4976981;28;19940;-50
2021/05/02 03:32:11;;;;;;;;;;;6.70;83.80;;;;;;4977549;28;19943;-50
2021/05/02 03:34:40;;;;;;;;;;;6.60;83.70;;;;;;4990247;28;19918;-50
2021/05/02 03:37:09;;;;;;;;;;;6.60;84.00;;;;;;4976004;28;19924;-51
2021/05/02 03:39:35;;;;;;;;;;;6.50;84.20;;;;;;4989021;28;19944;-51
2021/05/02 03:42:01;;;;;;;;;;;6.40;83.90;;;;;;4974970;28;20305;-51
2021/05/02 03:44:27;;;;;;;;;;;6.40;83.70;;;;;;4990549;28;19922;-50
2021/05/02 03:46:53;;;;;;;;;;;6.30;83.90;;;;;;4991597;28;19917;-52
2021/05/02 03:49:18;;;;;;;;;;;6.20;84.10;;;;;;5003868;28;19925;-51
2021/05/02 03:51:45;;;;;;;;;;;6.20;83.90;;;;;;5019290;28;19933;-50
2021/05/02 03:54:11;;;;;;;;;;;6.10;84.00;;;;;;4987021;28;19960;-50
2021/05/02 03:56:37;;;;;;;;;;;6.10;84.20;;;;;;4987626;28;20055;-52
2021/05/02 03:59:04;;;;;;;;;;;6.00;84.20;;;;;;4987688;28;19918;-51
2021/05/02 04:01:29;;;;;;;;;;;6.00;84.30;;;;;;4993325;28;19953;-52
2021/05/02 04:03:55;;;;;;;;;;;5.90;84.30;;;;;;4971656;28;20404;-49
2021/05/02 04:06:21;;;;;;;;;;;5.90;84.40;;;;;;4987446;28;19960;-49
2021/05/02 04:08:47;;;;;;;;;;;5.80;84.50;;;;;;4976995;28;20506;-48
2021/05/02 04:11:12;;;;;;;;;;;5.80;84.50;;;;;;5014370;28;19964;-50
2021/05/02 04:13:38;;;;;;;;;;;5.70;84.60;;;;;;4994529;28;19922;-49
2021/05/02 04:16:03;;;;;;;;;;;5.70;84.60;;;;;;4994173;28;19967;-52
2021/05/02 04:18:30;;;;;;;;;;;5.60;84.60;;;;;;4975190;28;20305;-49
2021/05/02 04:20:58;;;;;;;;;;;5.60;84.90;;;;;;4992403;28;20000;-49
2021/05/02 04:23:23;;;;;;;;;;;5.60;84.90;;;;;;4994120;28;20282;-52
2021/05/02 04:25:49;;;;;;;;;;;5.50;85.10;;;;;;4993288;28;20270;-49
2021/05/02 04:28:14;;;;;;;;;;;5.50;85.10;;;;;;4978395;28;19957;-51
2021/05/02 04:30:40;;;;;;;;;;;5.50;85.20;;;;;;4992811;28;19917;-50
2021/05/02 04:33:05;;;;;;;;;;;5.50;85.40;;;;;;4992437;28;19948;-48
2021/05/02 04:35:31;;;;;;;;;;;5.50;85.40;;;;;;4975770;28;20024;-49
2021/05/02 04:37:57;;;;;;;;;;;5.50;85.60;;;;;;4977655;28;20342;-50
2021/05/02 04:40:22;;;;;;;;;;;5.40;85.60;;;;;;5001038;28;19917;-50
2021/05/02 04:42:48;;;;;;;;;;;5.40;85.70;;;;;;4989059;28;19922;-49
2021/05/02 04:45:14;;;;;;;;;;;5.40;85.60;;;;;;4989599;28;19917;-50
2021/05/02 04:47:40;;;;;;;;;;;5.40;85.80;;;;;;4954602;28;19925;-51
2021/05/02 04:50:06;;;;;;;;;;;5.40;85.80;;;;;;5002231;28;19920;-48
2021/05/02 04:52:32;;;;;;;;;;;5.30;86.00;;;;;;5026766;28;19922;-50
2021/05/02 04:54:58;;;;;;;;;;;5.30;85.90;;;;;;4988127;28;20139;-49
2021/05/02 04:57:30;;;;;;;;;;;5.30;86.10;;;;;;5052035;28;20298;-52
2021/05/02 04:59:56;;;;;;;;;;;5.40;86.20;;;;;;4992305;28;19922;-48
2021/05/02 05:02:21;;;;;;;;;;;5.40;86.20;;;;;;4991001;28;19918;-49
2021/05/02 05:04:47;;;;;;;;;;;5.50;86.10;;;;;;4991197;28;19921;-49
2021/05/02 05:07:13;;;;;;;;;;;5.50;86.00;;;;;;4961255;28;19918;-49
2021/05/02 05:09:40;;;;;;;;;;;5.60;85.60;;;;;;4992685;28;19967;-52
2021/05/02 05:12:07;;;;;;;;;;;5.70;85.60;;;;;;4994847;28;19917;-53
2021/05/02 05:14:33;;;;;;;;;;;5.80;85.00;;;;;;4998939;28;19928;-52
2021/05/02 05:16:59;;;;;;;;;;;5.90;84.70;;;;;;4974675;28;19917;-48
2021/05/02 05:19:30;;;;;;;;;;;6.00;84.30;;;;;;4992575;28;19929;-53
2021/05/02 05:21:55;;;;;;;;;;;6.10;83.90;;;;;;4991589;28;19998;-50
2021/05/02 05:24:21;;;;;;;;;;;6.20;83.70;;;;;;4992814;28;19921;-49
2021/05/02 05:26:46;;;;;;;;;;;6.20;83.60;;;;;;4991413;28;20989;-50
2021/05/02 05:29:12;;;;;;;;;;;6.20;83.90;;;;;;4981889;28;20433;-48
2021/05/02 05:31:37;;;;;;;;;;;6.30;83.90;;;;;;4992770;28;19924;-48
2021/05/02 05:34:03;;;;;;;;;;;6.40;84.20;;;;;;5002583;28;20005;-51
2021/05/02 05:36:28;;;;;;;;;;;6.60;83.70;;;;;;4989901;28;19921;-49
2021/05/02 05:38:54;;;;;;;;;;;6.90;82.70;;;;;;4980302;28;20403;-51
2021/05/02 05:41:20;;;;;;;;;;;7.10;82.10;;;;;;4978579;28;19922;-48
2021/05/02 05:43:46;;;;;;;;;;;7.20;81.70;;;;;;4992459;28;19924;-53
2021/05/02 05:46:13;;;;;;;;;;;7.20;81.20;;;;;;4978167;28;19918;-52
2021/05/02 05:48:42;;;;;;;;;;;7.20;81.10;;;;;;4984151;28;19926;-50
2021/05/02 05:51:09;;;;;;;;;;;7.30;80.90;;;;;;4984173;28;19922;-51
2021/05/02 05:53:35;;;;;;;;;;;7.20;80.70;;;;;;4985462;28;19957;-49
2021/05/02 05:56:01;;;;;;;;;;;7.20;80.60;;;;;;4984039;28;19921;-50
2021/05/02 05:58:29;;;;;;;;;;;7.80;80.10;;;;;;4989886;28;19975;-52
2021/05/02 06:00:55;;;;;;;;;;;8.40;77.00;;;;;;4965126;28;20009;-49
2021/05/02 06:03:21;;;;;;;;;;;8.90;75.50;;;;;;4985405;28;20000;-51
2021/05/02 06:05:47;;;;;;;;;;;9.10;73.50;;;;;;4989947;28;20411;-49
2021/05/02 06:08:12;;;;;;;;;;;9.20;73.10;;;;;;4977575;28;19983;-54
2021/05/02 06:10:38;;;;;;;;;;;9.40;73.40;;;;;;4990626;28;19990;-52
2021/05/02 06:13:03;;;;;;;;;;;9.80;71.80;;;;;;4991285;28;20530;-53
2021/05/02 06:15:29;;;;;;;;;;;10.10;70.80;;;;;;4990375;28;20382;-52
2021/05/02 06:17:55;;;;;;;;;;;10.00;70.90;;;;;;4988551;28;19960;-54
2021/05/02 06:20:21;;;;;;;;;;;9.60;71.00;;;;;;4986930;28;19971;-49
2021/05/02 06:22:48;;;;;;;;;;;9.30;72.20;;;;;;4972097;28;19921;-50
2021/05/02 06:25:15;;;;;;;;;;;9.00;73.80;;;;;;5005612;28;19918;-50
2021/05/02 06:27:40;;;;;;;;;;;8.70;74.20;;;;;;4990266;28;19939;-51
2021/05/02 06:30:07;;;;;;;;;;;8.60;76.40;;;;;;5013712;28;19958;-50
2021/05/02 06:32:34;;;;;;;;;;;8.50;76.90;;;;;;4995550;28;19928;-50
2021/05/02 06:35:00;;;;;;;;;;;8.50;77.90;;;;;;4990708;28;20258;-48
2021/05/02 06:37:26;;;;;;;;;;;8.50;78.00;;;;;;4990380;28;20356;-48
2021/05/02 06:39:52;;;;;;;;;;;8.40;77.10;;;;;;4988581;28;19918;-51
2021/05/02 06:42:18;;;;;;;;;;;8.40;76.80;;;;;;4977328;28;20024;-48
2021/05/02 06:44:43;;;;;;;;;;;8.30;76.70;;;;;;4991282;28;19917;-48
2021/05/02 06:47:09;;;;;;;;;;;8.40;76.50;;;;;;5011226;28;20396;-49
2021/05/02 06:49:36;;;;;;;;;;;8.60;76.20;;;;;;5023590;28;20007;-48
2021/05/02 06:52:02;;;;;;;;;;;8.60;76.20;;;;;;4989687;28;19922;-48
2021/05/02 06:54:28;;;;;;;;;;;8.60;74.60;;;;;;4989161;28;19932;-48
2021/05/02 06:56:53;;;;;;;;;;;8.60;73.70;;;;;;4988567;28;19940;-48
2021/05/02 06:59:19;;;;;;;;;;;8.50;74.30;;;;;;4977161;28;19991;-50
2021/05/02 07:01:46;;;;;;;;;;;8.40;73.50;;;;;;4990514;28;19918;-48
2021/05/02 07:04:13;;;;;;;;;;;8.40;74.10;;;;;;4983621;28;19963;-48
2021/05/02 07:06:38;;;;;;;;;;;8.40;74.50;;;;;;4986291;28;19918;-47
2021/05/02 07:09:04;;;;;;;;;;;8.60;75.10;;;;;;4996977;28;20027;-49
2021/05/02 07:11:31;;;;;;;;;;;8.70;74.20;;;;;;4979744;28;19922;-48
2021/05/02 07:13:56;;;;;;;;;;;8.80;72.70;;;;;;4987413;28;19959;-49
2021/05/02 07:16:22;;;;;;;;;;;9.00;71.80;;;;;;4981044;28;19953;-51
2021/05/02 07:18:49;;;;;;;;;;;9.00;69.30;;;;;;4976722;28;19921;-51
2021/05/02 07:21:17;;;;;;;;;;;9.10;69.80;;;;;;4977612;28;19921;-50
2021/05/02 07:23:45;;;;;;;;;;;9.20;69.00;;;;;;4988003;28;19917;-50
2021/05/02 07:26:11;;;;;;;;;;;9.20;69.50;;;;;;5040987;28;19966;-50
2021/05/02 07:28:37;;;;;;;;;;;9.20;69.20;;;;;;4988338;28;20356;-49
2021/05/02 07:31:03;;;;;;;;;;;9.10;68.90;;;;;;4978066;28;20297;-53
2021/05/02 07:33:29;;;;;;;;;;;9.20;68.40;;;;;;4989713;28;19926;-53
2021/05/02 07:35:54;;;;;;;;;;;9.20;68.40;;;;;;4988579;28;19918;-53
2021/05/02 07:38:20;;;;;;;;;;;9.20;65.80;;;;;;5010578;28;19951;-53
2021/05/02 07:40:46;;;;;;;;;;;9.20;67.50;;;;;;5011635;28;19922;-51
2021/05/02 07:43:11;;;;;;;;;;;9.10;65.10;;;;;;4991772;28;20364;-53
2021/05/02 07:45:37;;;;;;;;;;;9.20;64.60;;;;;;5011137;28;19922;-52
2021/05/02 07:48:02;;;;;;;;;;;9.20;66.60;;;;;;4983285;28;19925;-53
2021/05/02 07:50:28;;;;;;;;;;;9.40;67.90;;;;;;4984262;28;20005;-53
2021/05/02 07:52:53;;;;;;;;;;;9.60;68.00;;;;;;4987546;28;20028;-54
2021/05/02 07:55:19;;;;;;;;;;;9.80;68.50;;;;;;4983941;28;19921;-53
2021/05/02 07:57:45;;;;;;;;;;;9.90;68.10;;;;;;4988490;28;20000;-53
2021/05/02 08:00:11;;;;;;;;;;;9.90;64.50;;;;;;4981071;28;19918;-53
2021/05/02 08:02:41;;;;;;;;;;;10.10;63.30;;;;;;4988520;28;19925;-53
2021/05/02 08:05:08;;;;;;;;;;;10.20;64.10;;;;;;4984597;28;20309;-53
2021/05/02 08:07:33;;;;;;;;;;;10.30;64.90;;;;;;4978544;28;20020;-48
2021/05/02 08:09:59;;;;;;;;;;;10.40;63.30;;;;;;4996883;28;20016;-48
2021/05/02 08:12:24;;;;;;;;;;;10.50;63.40;;;;;;5026731;28;20017;-53
2021/05/02 08:14:50;;;;;;;;;;;10.60;62.40;;;;;;4970232;28;20386;-51
2021/05/02 08:17:15;;;;;;;;;;;10.60;63.40;;;;;;4981978;28;19926;-51
2021/05/02 08:19:41;;;;;;;;;;;10.40;60.40;;;;;;4981682;28;19917;-52
2021/05/02 08:22:06;;;;;;;;;;;10.20;61.20;;;;;;4987121;28;19941;-54
2021/05/02 08:24:32;;;;;;;;;;;9.90;62.30;;;;;;4988421;28;19918;-51
2021/05/02 08:26:57;;;;;;;;;;;10.00;63.10;;;;;;4979351;28;20344;-51
2021/05/02 08:29:23;;;;;;;;;;;10.20;63.60;;;;;;4981360;28;19918;-54
2021/05/02 08:31:50;;;;;;;;;;;10.40;63.90;;;;;;4982298;28;20021;-50
2021/05/02 08:34:16;;;;;;;;;;;10.60;62.70;;;;;;5014769;28;19958;-49
2021/05/02 08:36:41;;;;;;;;;;;10.60;62.80;;;;;;5027435;28;19917;-49
2021/05/02 08:39:07;;;;;;;;;;;10.50;58.00;;;;;;5059762;28;19960;-52
2021/05/02 08:41:33;;;;;;;;;;;10.40;58.60;;;;;;4972950;28;20279;-52
2021/05/02 08:43:59;;;;;;;;;;;10.50;59.20;;;;;;4988488;28;19944;-51
2021/05/02 08:46:25;;;;;;;;;;;10.60;58.30;;;;;;4992581;28;19929;-53
2021/05/02 08:48:50;;;;;;;;;;;10.70;58.70;;;;;;4991806;28;19917;-49
2021/05/02 08:51:17;;;;;;;;;;;10.90;57.20;;;;;;4985841;28;19940;-49
2021/05/02 08:53:43;;;;;;;;;;;10.90;56.30;;;;;;4983721;28;19940;-51
2021/05/02 08:56:09;;;;;;;;;;;10.90;57.50;;;;;;4988696;28;19930;-51
2021/05/02 08:58:36;;;;;;;;;;;10.70;58.00;;;;;;4981222;28;20431;-51
2021/05/02 09:01:02;;;;;;;;;;;10.40;58.00;;;;;;4995596;28;19957;-49
2021/05/02 09:03:38;;;;;;;;;;;10.10;59.30;;;;;;5043901;28;19922;-50
2021/05/02 09:06:12;;;;;;;;;;;9.90;59.60;;;;;;4979039;28;19918;-49
2021/05/02 09:08:38;;;;;;;;;;;9.70;60.40;;;;;;4983586;28;19918;-50
2021/05/02 09:11:04;;;;;;;;;;;9.80;62.60;;;;;;4984877;28;20333;-51
2021/05/02 09:13:31;;;;;;;;;;;9.90;63.70;;;;;;4977200;28;19929;-49
2021/05/02 09:16:02;;;;;;;;;;;10.10;63.60;;;;;;4980194;28;19918;-49
2021/05/02 09:18:33;;;;;;;;;;;10.30;62.00;;;;;;4990136;28;19921;-53
2021/05/02 09:20:59;;;;;;;;;;;10.40;60.00;;;;;;4980933;28;19922;-48
2021/05/02 09:23:34;;;;;;;;;;;10.20;57.50;;;;;;4990396;28;19987;-50
2021/05/02 09:26:04;;;;;;;;;;;10.10;59.20;;;;;;4992828;28;20336;-51
2021/05/02 09:28:42;;;;;;;;;;;9.90;59.30;;;;;;4945368;28;19918;-50
2021/05/02 09:31:08;;;;;;;;;;;9.80;62.00;;;;;;4993952;28;20037;-49
2021/05/02 09:33:35;;;;;;;;;;;9.90;62.80;;;;;;4981086;28;20401;-50
2021/05/02 09:36:00;;;;;;;;;;;10.10;64.30;;;;;;4993047;28;19918;-52
2021/05/02 09:38:27;;;;;;;;;;;10.40;63.40;;;;;;4990561;28;20413;-52
2021/05/02 09:40:54;;;;;;;;;;;10.70;62.10;;;;;;4991313;28;20013;-52
2021/05/02 09:43:34;;;;;;;;;;;11.00;61.90;;;;;;4994714;28;19960;-50
2021/05/02 09:46:07;;;;;;;;;;;11.00;60.10;;;;;;4977801;28;20301;-52
2021/05/02 09:48:34;;;;;;;;;;;10.80;59.40;;;;;;4991053;28;19922;-50
2021/05/02 09:51:13;;;;;;;;;;;10.60;58.90;;;;;;4978459;28;19956;-52
2021/05/02 09:53:40;;;;;;;;;;;10.40;58.50;;;;;;4978249;28;19922;-49
2021/05/02 09:56:14;;;;;;;;;;;10.50;58.50;;;;;;4978470;28;19933;-49
2021/05/02 09:58:41;;;;;;;;;;;10.70;59.40;;;;;;4989536;28;19922;-50
2021/05/02 10:01:07;;;;;;;;;;;10.90;58.70;;;;;;4996145;28;19918;-53
2021/05/02 10:03:35;;;;;;;;;;;10.90;57.80;;;;;;4990803;28;19928;-54
2021/05/02 10:06:08;;;;;;;;;;;10.90;59.00;;;;;;4990282;28;19918;-55
2021/05/02 10:08:34;;;;;;;;;;;11.00;58.30;;;;;;4976528;28;19918;-50
2021/05/02 10:11:03;;;;;;;;;;;11.20;59.30;;;;;;4991065;28;19918;-50
2021/05/02 10:13:28;;;;;;;;;;;11.40;60.60;;;;;;4985185;28;19922;-49
2021/05/02 10:15:55;;;;;;;;;;;11.30;56.50;;;;;;4983251;28;19929;-49
2021/05/02 10:18:20;;;;;;;;;;;11.10;57.40;;;;;;4974138;28;19922;-52
2021/05/02 10:20:47;;;;;;;;;;;10.90;56.60;;;;;;4980793;28;19929;-50
2021/05/02 10:23:14;;;;;;;;;;;10.70;56.50;;;;;;4990007;28;19918;-53
2021/05/02 10:25:45;;;;;;;;;;;10.40;56.30;;;;;;4992593;28;19924;-51
2021/05/02 10:28:18;;;;;;;;;;;10.30;57.80;;;;;;4987632;28;20348;-52
2021/05/02 10:30:48;;;;;;;;;;;10.20;58.90;;;;;;4991387;28;20301;-54
2021/05/02 10:33:14;;;;;;;;;;;10.00;60.50;;;;;;4987307;28;20392;-53
2021/05/02 10:35:46;;;;;;;;;;;9.90;59.80;;;;;;4990331;28;19924;-53
2021/05/02 10:38:14;;;;;;;;;;;9.80;60.90;;;;;;4993188;28;19921;-53
2021/05/02 10:40:40;;;;;;;;;;;9.70;59.70;;;;;;4988957;28;19918;-54
2021/05/02 10:43:10;;;;;;;;;;;9.70;60.20;;;;;;4992746;28;20012;-52
2021/05/02 10:45:37;;;;;;;;;;;9.70;59.60;;;;;;4994183;28;19961;-50
2021/05/02 10:48:07;;;;;;;;;;;9.70;60.70;;;;;;4993260;28;19917;-52
2021/05/02 10:50:45;;;;;;;;;;;9.70;62.10;;;;;;4992974;28;20437;-52
2021/05/02 10:53:15;;;;;;;;;;;9.80;63.10;;;;;;4984291;28;20027;-51
2021/05/02 10:56:04;;;;;;;;;;;9.90;63.30;;;;;;4988043;28;19924;-52
2021/05/02 10:58:29;;;;;;;;;;;10.20;63.40;;;;;;4993054;28;20361;-49
2021/05/02 11:01:00;;;;;;;;;;;10.40;60.30;;;;;;4993828;28;19922;-51
2021/05/02 11:03:36;;;;;;;;;;;10.50;58.30;;;;;;5034785;28;19925;-53
2021/05/02 11:06:02;;;;;;;;;;;10.50;58.10;;;;;;4992030;28;19928;-55
2021/05/02 11:08:46;;;;;;;;;;;10.40;58.10;;;;;;4992512;28;19918;-54
2021/05/02 11:11:31;;;;;;;;;;;10.40;60.60;;;;;;4994719;28;20004;-52
2021/05/02 11:14:13;;;;;;;;;;;10.40;58.90;;;;;;5014176;28;20374;-55
2021/05/02 11:16:49;;;;;;;;;;;10.40;59.50;;;;;;4989793;28;20405;-49
2021/05/02 11:19:24;;;;;;;;;;;10.30;58.90;;;;;;4984594;28;19918;-49
2021/05/02 11:22:02;;;;;;;;;;;10.50;57.00;;;;;;4990451;28;20056;-49
2021/05/02 11:24:39;;;;;;;;;;;10.60;57.10;;;;;;4980048;28;19926;-50
2021/05/02 11:27:09;;;;;;;;;;;10.60;56.50;;;;;;4979813;28;19977;-49
2021/05/02 11:29:41;;;;;;;;;;;10.60;56.60;;;;;;4991936;28;19917;-52
2021/05/02 11:32:07;;;;;;;;;;;10.80;57.20;;;;;;4992756;28;19925;-51
2021/05/02 11:34:51;;;;;;;;;;;10.80;55.90;;;;;;4993695;28;20316;-55
2021/05/02 11:37:37;;;;;;;;;;;10.70;54.00;;;;;;4979373;28;19918;-52
2021/05/02 11:40:23;;;;;;;;;;;10.60;55.00;;;;;;4992282;28;19922;-49
2021/05/02 11:42:53;;;;;;;;;;;10.50;55.30;;;;;;5037291;28;20015;-49
2021/05/02 11:45:39;;;;;;;;;;;10.40;56.50;;;;;;5004505;28;19922;-52
2021/05/02 11:48:07;;;;;;;;;;;10.40;57.80;;;;;;4997912;28;19967;-50
2021/05/02 11:50:40;;;;;;;;;;;10.40;57.40;;;;;;4991837;28;19926;-52
2021/05/02 11:53:05;;;;;;;;;;;10.30;57.70;;;;;;4991744;28;19957;-50
2021/05/02 11:55:40;;;;;;;;;;;10.20;58.50;;;;;;4989879;28;19918;-49
2021/05/02 11:58:13;;;;;;;;;;;10.20;58.70;;;;;;4990529;28;20636;-51
2021/05/02 12:00:46;;;;;;;;;;;10.20;58.00;;;;;;4991919;28;19979;-49
2021/05/02 12:03:14;;;;;;;;;;;10.10;58.40;;;;;;4991276;28;19929;-48
2021/05/02 12:05:48;;;;;;;;;;;10.20;58.30;;;;;;4983688;28;20038;-53
2021/05/02 12:08:14;;;;;;;;;;;10.20;59.10;;;;;;4989334;28;19924;-49
2021/05/02 12:10:40;;;;;;;;;;;10.20;59.40;;;;;;4993457;28;20293;-49
2021/05/02 12:13:06;;;;;;;;;;;10.10;59.10;;;;;;4995001;28;19917;-49
2021/05/02 12:15:32;;;;;;;;;;;10.00;58.70;;;;;;4992556;28;19922;-51
2021/05/02 12:17:58;;;;;;;;;;;9.90;58.20;;;;;;4984801;28;20412;-50
2021/05/02 12:20:25;;;;;;;;;;;9.90;58.90;;;;;;4993172;28;20013;-50
2021/05/02 12:22:51;;;;;;;;;;;9.80;59.60;;;;;;4988869;28;20417;-49
2021/05/02 12:25:17;;;;;;;;;;;9.80;60.20;;;;;;4997309;28;19972;-51
2021/05/02 12:27:55;;;;;;;;;;;9.80;61.10;;;;;;4994929;28;20004;-49
2021/05/02 12:30:21;;;;;;;;;;;9.90;59.70;;;;;;4997202;28;19921;-52
2021/05/02 12:32:48;;;;;;;;;;;9.90;59.50;;;;;;5000311;28;20146;-50
2021/05/02 12:35:13;;;;;;;;;;;10.00;60.10;;;;;;4988564;28;19921;-50
2021/05/02 12:37:39;;;;;;;;;;;10.20;60.70;;;;;;4993140;28;19956;-51
2021/05/02 12:40:06;;;;;;;;;;;10.30;59.90;;;;;;4993414;28;20301;-50
2021/05/02 12:42:33;;;;;;;;;;;10.50;61.10;;;;;;4997342;28;19917;-51
2021/05/02 12:45:00;;;;;;;;;;;10.60;60.50;;;;;;5054055;28;19922;-52
2021/05/02 12:47:31;;;;;;;;;;;10.80;60.50;;;;;;4995319;28;19991;-50
2021/05/02 12:50:02;;;;;;;;;;;10.90;60.00;;;;;;4996051;28;20012;-52
2021/05/02 12:52:29;;;;;;;;;;;11.00;60.50;;;;;;4994524;28;19921;-51
2021/05/02 12:54:54;;;;;;;;;;;11.00;60.10;;;;;;4999336;28;19922;-50
2021/05/02 12:57:24;;;;;;;;;;;11.00;57.30;;;;;;5049066;28;19929;-52
2021/05/02 12:59:58;;;;;;;;;;;11.30;59.20;;;;;;4998717;28;19924;-49
2021/05/02 13:02:29;;;;;;;;;;;11.30;55.60;;;;;;4982249;28;19918;-49
2021/05/02 13:05:00;;;;;;;;;;;11.00;56.20;;;;;;5023555;28;19922;-50
2021/05/02 13:07:39;;;;;;;;;;;10.80;57.50;;;;;;5016600;28;19939;-53
2021/05/02 13:10:10;;;;;;;;;;;10.60;58.60;;;;;;4979150;28;19949;-53
2021/05/02 13:12:53;;;;;;;;;;;10.40;59.20;;;;;;4980799;28;20374;-52
2021/05/02 13:15:23;;;;;;;;;;;10.30;58.60;;;;;;4985436;28;19925;-50
2021/05/02 13:18:09;;;;;;;;;;;10.20;59.30;;;;;;5010548;28;20009;-52
2021/05/02 13:20:48;;;;;;;;;;;10.10;58.70;;;;;;4980742;28;20381;-52
2021/05/02 13:23:43;;;;;;;;;;;10.10;59.10;;;;;;4985493;28;19918;-49
2021/05/02 13:26:12;;;;;;;;;;;10.20;58.20;;;;;;4963928;28;19921;-51
2021/05/02 13:28:38;;;;;;;;;;;10.50;58.30;;;;;;4995292;28;19921;-50
2021/05/02 13:31:05;;;;;;;;;;;10.50;58.00;;;;;;4993291;28;19918;-50
2021/05/02 13:33:30;;;;;;;;;;;10.60;59.00;;;;;;4982725;28;19922;-54
2021/05/02 13:35:57;;;;;;;;;;;10.70;58.40;;;;;;4993292;28;19918;-53
2021/05/02 13:38:24;;;;;;;;;;;10.70;56.10;;;;;;4990944;28;19918;-53
2021/05/02 13:40:54;;;;;;;;;;;10.50;56.60;;;;;;4978171;28;19929;-53
2021/05/02 13:43:19;;;;;;;;;;;10.30;56.50;;;;;;4986481;28;20008;-54
2021/05/02 13:45:45;;;;;;;;;;;10.20;56.60;;;;;;4980122;28;19953;-53
2021/05/02 13:48:14;;;;;;;;;;;10.10;54.70;;;;;;4989985;28;19918;-52
2021/05/02 13:50:41;;;;;;;;;;;10.00;55.40;;;;;;4993459;28;19922;-53
2021/05/02 13:53:07;;;;;;;;;;;10.10;56.20;;;;;;4989647;28;19925;-50
2021/05/02 13:55:38;;;;;;;;;;;10.20;56.90;;;;;;5007668;28;19926;-54
2021/05/02 13:58:04;;;;;;;;;;;10.40;56.60;;;;;;4996293;28;19929;-51
2021/05/02 14:00:32;;;;;;;;;;;10.50;57.40;;;;;;4988893;28;19922;-53
2021/05/02 14:02:59;;;;;;;;;;;10.30;56.60;;;;;;4994050;28;19929;-51
2021/05/02 14:05:25;;;;;;;;;;;10.10;57.40;;;;;;4970391;28;19926;-49
2021/05/02 14:07:51;;;;;;;;;;;10.10;59.50;;;;;;4984825;28;19946;-50
2021/05/02 14:10:16;;;;;;;;;;;10.00;58.60;;;;;;4992001;28;19924;-49
2021/05/02 14:12:42;;;;;;;;;;;10.00;59.60;;;;;;4991094;28;19929;-50
2021/05/02 14:15:08;;;;;;;;;;;10.00;60.50;;;;;;4994005;28;20339;-52
2021/05/02 14:17:34;;;;;;;;;;;10.10;60.00;;;;;;4982595;28;20001;-54
2021/05/02 14:20:00;;;;;;;;;;;10.00;58.60;;;;;;4985581;28;19943;-51
2021/05/02 14:22:26;;;;;;;;;;;10.00;59.70;;;;;;4993850;28;20005;-53
2021/05/02 14:24:54;;;;;;;;;;;10.00;58.70;;;;;;4991372;28;19917;-51
2021/05/02 14:27:22;;;;;;;;;;;9.90;57.40;;;;;;4995281;28;19917;-49
2021/05/02 14:29:48;;;;;;;;;;;9.90;57.90;;;;;;4993904;28;20377;-51
2021/05/02 14:32:14;;;;;;;;;;;10.10;59.70;;;;;;4995597;28;19943;-50